LTBALTAN

Guest
Details From LTBA - Istanbul Ataturk
To LTAN - KONYA
Flight Number -
Tags generated
Created
Modified
Stats Distance 260 nm / 482 km
Max Altitude 32,300 ft / 9,845 m
Waypoints 5
Social Downloads 2
Likes 0
Share VATSIM

Download

Looking for another format? Having issues loading an existing format? Contact us
Advertisement - Login to hide

Notes

Basic altitude profile: - Ascent Rate: 2500ft/min - Ascent Speed: 250kts - Cruise Altitude: 36000ft - Cruise Speed: 320kts - Descent Rate: 1200ft/min - Descent Speed: 250kts Options: - Use NATs: yes - Use PACOTS: yes - Use low airways: yes - Use high airways: yes

Route

LTBA YAA A16 KFK LTAN

ID Type Via Altitude Latitude Longitude Leg Dist Tot Dist Heading (true) Name
O LTBA APT - 0 ft / 0 m 40.97914˚ 28.81283˚ - 0 nm - Istanbul Ataturk
YAA VOR - 12,500 ft / 3,810 m 40.47500˚ 29.20750˚ 35 nm 35 nm 149° / 149° YALOVA VOR-DME
KARGI FIX A16 (AWY-LO) 32,300 ft / 9,845 m 39.42917˚ 30.05444˚ 73 nm 109 nm 148° / 148° -
KFK NDB A16 (AWY-LO) 22,900 ft / 6,980 m 38.80389˚ 30.54694˚ 44 nm 153 nm 148° / 149° AFYON NDB
O LTAN APT - 0 ft / 0 m 37.97900˚ 32.56185˚ 107 nm 260 nm 117° / 118° KONYA

Altitude Profile

Advertisement - Login to hide

Weather


0- 5 10 15 20 25 30 35+ Temperature / ° C

Clouds and Precipitation
Forecast for 2018-06-25 06:00 UTC. Updated 4 hours ago

Ground ~20,000 ft ~40,000 ft Winds

LTBA

Details ICAO LTBA (IST)
Name Istanbul Ataturk
Region Turkey
Timezone Europe/Istanbul (UTC+3.0)
Stats Elevation 163 ft / 50 m (AMSL)
Location 40.979136° 28.812832°
Runways 3
Magnetic Variation 5.482° E

METAR

LTBA 250720Z 03015KT 9999 SCT040 BKN100 23/13 Q1015 NOSIG RMK RWY17L 05016KT 010V080 RWY05 01016KT 340V040 RWY23 05015KT

Decode

TAF

Not found

Departure Runways

ID Width Length Bearing (true) Bearing (mag) Surface Threshold Offset Overrun Length
05 197 ft / 60 m 8,514 ft / 2,595 m 58.64° 53.16° Concrete 400 ft / 122 m 197 ft / 60 m
17L 148 ft / 45 m 9,820 ft / 2,993 m 178.48° 173.00° Concrete 0 ft / 0 m 197 ft / 60 m
17R 148 ft / 45 m 9,858 ft / 3,005 m 178.49° 173.01° Concrete 0 ft / 0 m 0 ft / 0 m
23 197 ft / 60 m 8,514 ft / 2,595 m 238.65° 233.17° Concrete 0 ft / 0 m 197 ft / 60 m
35L 148 ft / 45 m 9,858 ft / 3,005 m 358.49° 353.01° Concrete 0 ft / 0 m 200 ft / 61 m
35R 148 ft / 45 m 9,820 ft / 2,993 m 358.48° 353.00° Concrete 0 ft / 0 m 197 ft / 60 m

LTAN

Details ICAO LTAN (KYA)
Name KONYA
Region Turkey
Timezone Europe/Istanbul (UTC+3.0)
Stats Elevation 3,381 ft / 1,031 m (AMSL)
Location 37.979000° 32.561847°
Runways 1
Magnetic Variation 5.393° E

METAR

LTAN 250650Z 01013KT 9999 FEW040 23/14 Q1015 NOSIG RMK RWY19 02015KT

Decode

TAF

Not found

Destination Runways

ID Width Length Bearing (true) Bearing (mag) Surface Threshold Offset Overrun Length
01 148 ft / 45 m 11,008 ft / 3,355 m 16.74° 11.35° Asphalt 0 ft / 0 m 328 ft / 100 m
19 148 ft / 45 m 11,008 ft / 3,355 m 196.75° 191.36° Asphalt 0 ft / 0 m 328 ft / 100 m

Popular Alternatives